createdAt,value
2018-06-19T00:00:57.460Z,18.90
2018-06-19T00:02:03.694Z,18.91
2018-06-19T00:03:09.918Z,19.03
2018-06-19T00:04:16.174Z,18.94
2018-06-19T00:05:22.221Z,18.91
2018-06-19T00:06:29.321Z,18.83
2018-06-19T00:07:35.599Z,18.73
2018-06-19T00:08:41.829Z,18.86
2018-06-19T00:09:48.080Z,18.93
2018-06-19T00:10:54.334Z,19.00
2018-06-19T00:12:00.203Z,18.89
2018-06-19T00:13:06.204Z,18.83
2018-06-19T00:14:12.504Z,18.90
2018-06-19T00:15:18.763Z,18.86
2018-06-19T00:16:24.687Z,18.82
2018-06-19T00:17:30.660Z,18.84
2018-06-19T00:18:36.962Z,18.84
2018-06-19T00:19:42.849Z,18.89
2018-06-19T00:20:49.128Z,19.02
2018-06-19T00:21:55.884Z,19.03
2018-06-19T00:23:01.464Z,18.96
2018-06-19T00:24:07.390Z,19.03
2018-06-19T00:25:13.624Z,19.04
2018-06-19T00:26:19.138Z,19.10
2018-06-19T00:27:25.053Z,19.07
2018-06-19T00:28:31.309Z,19.04
2018-06-19T00:29:37.581Z,18.99
2018-06-19T00:30:43.817Z,18.96
2018-06-19T00:31:50.036Z,18.88
2018-06-19T00:32:56.262Z,18.96
2018-06-19T00:34:06.085Z,18.98
2018-06-19T00:35:12.311Z,18.94
2018-06-19T00:36:18.563Z,18.72
2018-06-19T00:37:24.779Z,18.82
2018-06-19T00:38:31.903Z,18.92
2018-06-19T00:39:38.152Z,19.01
2018-06-19T00:40:44.399Z,19.00
2018-06-19T00:41:50.669Z,18.96
2018-06-19T00:42:56.934Z,18.93
2018-06-19T00:44:03.510Z,18.86
2018-06-19T00:45:09.783Z,18.71
2018-06-19T00:46:15.649Z,18.73
2018-06-19T00:47:21.908Z,18.84
2018-06-19T00:48:28.141Z,18.92
2018-06-19T00:49:34.403Z,18.92
2018-06-19T00:50:40.633Z,18.93
2018-06-19T00:51:46.581Z,18.80
2018-06-19T00:52:52.826Z,18.82
2018-06-19T00:53:59.054Z,18.87
2018-06-19T00:55:04.948Z,18.77
2018-06-19T00:56:22.153Z,18.83
2018-06-19T00:57:28.138Z,18.77
2018-06-19T00:58:34.583Z,18.80
2018-06-19T00:59:40.854Z,18.70
2018-06-19T01:00:47.080Z,18.70
2018-06-19T01:01:53.369Z,18.78
2018-06-19T01:02:59.288Z,18.76
2018-06-19T01:04:05.490Z,18.75
2018-06-19T01:05:11.730Z,18.59
2018-06-19T01:06:18.856Z,18.46
2018-06-19T01:07:25.257Z,18.39
2018-06-19T01:08:31.207Z,18.39
2018-06-19T01:09:37.445Z,18.43
2018-06-19T01:10:43.677Z,18.35
2018-06-19T01:11:49.887Z,18.44
2018-06-19T01:12:56.097Z,18.56
2018-06-19T01:14:02.355Z,18.54
2018-06-19T01:15:08.614Z,18.60
2018-06-19T01:16:14.849Z,18.71
2018-06-19T01:17:21.117Z,18.73
2018-06-19T01:18:27.391Z,18.62
2018-06-19T01:19:34.570Z,18.64
2018-06-19T01:20:40.786Z,18.63
2018-06-19T01:21:47.003Z,18.61
2018-06-19T01:22:53.240Z,18.60
2018-06-19T01:23:59.507Z,18.60
2018-06-19T01:25:05.805Z,18.53
2018-06-19T01:26:12.009Z,18.46
2018-06-19T01:27:18.224Z,18.47
2018-06-19T01:28:24.085Z,18.32
2018-06-19T01:29:31.211Z,18.50
2018-06-19T01:30:38.228Z,18.45
2018-06-19T01:31:44.459Z,18.43
2018-06-19T01:32:50.705Z,18.34
2018-06-19T01:33:56.564Z,18.20
2018-06-19T01:35:03.029Z,18.23
2018-06-19T01:36:09.271Z,18.15
2018-06-19T01:37:15.509Z,18.37
2018-06-19T01:38:21.477Z,18.44
2018-06-19T01:39:27.416Z,18.61
2018-06-19T01:40:33.763Z,18.47
2018-06-19T01:41:40.039Z,18.33
2018-06-19T01:42:45.986Z,18.28
2018-06-19T01:43:52.197Z,18.26
2018-06-19T01:44:58.172Z,18.34
2018-06-19T01:46:04.414Z,18.45
2018-06-19T01:47:10.401Z,18.62
2018-06-19T01:48:16.636Z,18.58
2018-06-19T01:49:22.855Z,18.42
2018-06-19T01:50:29.186Z,18.31
2018-06-19T01:51:35.129Z,18.28
2018-06-19T01:52:41.383Z,18.17
2018-06-19T01:53:47.618Z,18.21
2018-06-19T01:54:53.858Z,18.27
2018-06-19T01:56:00.113Z,18.42
2018-06-19T01:57:06.328Z,18.39
2018-06-19T01:58:12.624Z,18.45
2018-06-19T01:59:18.868Z,18.47
2018-06-19T02:00:25.136Z,18.37
2018-06-19T02:01:31.348Z,18.27
2018-06-19T02:02:38.263Z,18.27
2018-06-19T02:03:44.231Z,18.28
2018-06-19T02:04:50.733Z,18.36
2018-06-19T02:05:57.891Z,18.28
2018-06-19T02:07:03.537Z,18.11
2018-06-19T02:08:09.749Z,18.02
2018-06-19T02:09:15.980Z,17.96
2018-06-19T02:10:22.238Z,18.06
2018-06-19T02:11:28.472Z,18.11
2018-06-19T02:12:34.764Z,18.08
2018-06-19T02:13:40.995Z,18.03
2018-06-19T02:14:47.235Z,17.96
2018-06-19T02:15:53.480Z,17.78
2018-06-19T02:16:59.716Z,17.82
2018-06-19T02:18:05.964Z,17.81
2018-06-19T02:19:12.691Z,17.89
2018-06-19T02:20:20.319Z,17.86
2018-06-19T02:21:26.250Z,17.69
2018-06-19T02:22:35.211Z,17.65
2018-06-19T02:23:41.450Z,17.59
2018-06-19T02:24:47.701Z,17.50
2018-06-19T02:25:53.972Z,17.46
2018-06-19T02:27:00.216Z,17.38
2018-06-19T02:28:06.443Z,17.32
2018-06-19T02:29:12.673Z,17.32
2018-06-19T02:30:18.957Z,17.22
2018-06-19T02:31:25.240Z,17.24
2018-06-19T02:32:31.468Z,17.20
2018-06-19T02:33:37.690Z,17.32
